createdAt,value
2022-10-22T00:01:21.117Z,13.17
2022-10-22T00:03:48.906Z,13.10
2022-10-22T00:06:16.749Z,13.15
2022-10-22T00:08:44.603Z,13.26
2022-10-22T00:11:14.547Z,13.30
2022-10-22T00:13:43.347Z,13.35
2022-10-22T00:16:11.197Z,13.27
2022-10-22T00:18:40.778Z,13.33
2022-10-22T00:21:09.228Z,13.30
2022-10-22T00:23:37.174Z,13.33
2022-10-22T00:26:05.321Z,13.47
2022-10-22T00:28:33.132Z,13.69
2022-10-22T00:31:02.390Z,13.43
2022-10-22T00:33:30.786Z,13.28
2022-10-22T00:35:59.998Z,13.46
2022-10-22T00:38:27.817Z,13.46
2022-10-22T00:40:55.768Z,13.52
2022-10-22T00:43:23.607Z,13.43
2022-10-22T00:45:51.493Z,13.46
2022-10-22T00:48:23.042Z,13.44
2022-10-22T00:50:56.474Z,13.13
2022-10-22T00:53:30.701Z,13.01
2022-10-22T00:55:59.039Z,13.03
2022-10-22T00:58:31.991Z,13.32
2022-10-22T01:01:00.498Z,13.12
2022-10-22T01:03:28.950Z,13.12
2022-10-22T01:05:59.688Z,13.21
2022-10-22T01:08:38.188Z,13.22
2022-10-22T01:11:16.053Z,13.38
2022-10-22T01:13:51.024Z,13.36
2022-10-22T01:16:26.691Z,13.30
2022-10-22T01:19:02.592Z,13.32
2022-10-22T01:21:36.311Z,13.28
2022-10-22T01:24:36.967Z,13.28
2022-10-22T01:27:16.367Z,13.39
2022-10-22T01:29:50.814Z,13.29
2022-10-22T01:32:22.361Z,13.44
2022-10-22T01:34:56.729Z,13.62
2022-10-22T01:37:27.017Z,13.44
2022-10-22T01:39:55.257Z,13.33
2022-10-22T01:42:23.080Z,13.38
2022-10-22T01:44:52.448Z,13.36
2022-10-22T01:47:33.502Z,13.58
2022-10-22T01:50:17.757Z,13.65
2022-10-22T01:52:58.985Z,13.30
2022-10-22T01:55:33.842Z,13.39
2022-10-22T01:58:16.251Z,13.33
2022-10-22T02:00:51.763Z,13.22
2022-10-22T02:03:25.685Z,13.08
2022-10-22T02:05:56.633Z,13.08
2022-10-22T02:08:29.221Z,13.19
2022-10-22T02:10:58.835Z,13.16
2022-10-22T02:13:29.973Z,13.33
2022-10-22T02:16:01.133Z,13.33
2022-10-22T02:18:36.287Z,13.34
2022-10-22T02:23:41.357Z,13.23
2022-10-22T02:26:16.055Z,13.25
2022-10-22T02:28:50.942Z,13.37
2022-10-22T02:31:24.497Z,13.31
2022-10-22T02:33:56.749Z,13.22
2022-10-22T02:36:25.248Z,13.29
2022-10-22T02:38:53.953Z,13.22
2022-10-22T02:41:22.059Z,13.32
2022-10-22T02:43:52.341Z,13.28
2022-10-22T02:46:21.827Z,13.37
2022-10-22T02:48:49.643Z,13.23
2022-10-22T02:51:17.758Z,13.31
2022-10-22T02:53:45.640Z,13.28
2022-10-22T02:56:14.195Z,13.23
2022-10-22T02:58:41.986Z,13.18
2022-10-22T03:01:12.383Z,13.23
2022-10-22T03:03:44.443Z,13.31
2022-10-22T03:06:12.265Z,13.34
2022-10-22T03:08:40.070Z,13.19
2022-10-22T03:11:08.264Z,13.13
2022-10-22T03:13:36.077Z,13.19
2022-10-22T03:16:03.867Z,13.13
2022-10-22T03:18:31.851Z,13.11
2022-10-22T03:21:07.104Z,13.07
2022-10-22T03:23:35.002Z,12.96
2022-10-22T03:26:03.128Z,12.89
2022-10-22T03:28:31.066Z,12.85
2022-10-22T03:30:58.926Z,12.78
2022-10-22T03:33:26.696Z,12.91
2022-10-22T03:35:54.533Z,12.85
2022-10-22T03:38:23.678Z,13.09
2022-10-22T03:40:51.740Z,12.91
2022-10-22T03:43:19.624Z,12.82
2022-10-22T03:45:47.396Z,12.75
2022-10-22T03:48:15.369Z,12.81
2022-10-22T03:50:43.156Z,12.75
2022-10-22T03:53:10.950Z,12.81
2022-10-22T03:55:41.835Z,12.80
2022-10-22T03:58:09.680Z,12.77
2022-10-22T04:00:37.761Z,12.81
2022-10-22T04:03:05.774Z,12.80
2022-10-22T04:05:33.970Z,12.77
2022-10-22T04:08:01.727Z,12.65
2022-10-22T04:10:29.481Z,12.73
2022-10-22T04:12:58.596Z,12.78
2022-10-22T04:15:30.256Z,12.91
2022-10-22T04:17:58.013Z,12.80
2022-10-22T04:20:25.759Z,12.76
2022-10-22T04:22:53.481Z,12.73
2022-10-22T04:25:21.283Z,12.72
2022-10-22T04:27:49.123Z,12.64
2022-10-22T04:30:18.334Z,12.76
2022-10-22T04:32:46.161Z,12.83
2022-10-22T04:35:14.047Z,12.82
2022-10-22T04:37:42.310Z,12.78
2022-10-22T04:40:11.963Z,12.92
2022-10-22T04:42:39.743Z,12.84
2022-10-22T04:45:08.398Z,12.77
2022-10-22T04:47:37.669Z,12.74
2022-10-22T04:50:06.589Z,12.75
2022-10-22T04:52:34.371Z,12.81
2022-10-22T04:55:02.112Z,12.77
2022-10-22T04:57:30.876Z,12.77
2022-10-22T04:59:58.725Z,12.77
2022-10-22T05:02:26.494Z,12.83
2022-10-22T05:04:55.598Z,12.73
2022-10-22T05:07:23.817Z,12.69
2022-10-22T05:09:51.656Z,12.86
2022-10-22T05:12:19.415Z,12.77
2022-10-22T05:14:47.234Z,12.63
2022-10-22T05:17:15.015Z,12.60
2022-10-22T05:19:42.781Z,12.56
2022-10-22T05:22:12.013Z,12.57
2022-10-22T05:24:40.032Z,12.50
2022-10-22T05:27:07.871Z,12.51
2022-10-22T05:29:35.772Z,12.51
2022-10-22T05:32:03.529Z,12.45
2022-10-22T05:34:33.310Z,12.46
2022-10-22T05:37:01.116Z,12.56
2022-10-22T05:39:36.553Z,12.44
2022-10-22T05:42:04.504Z,12.49
2022-10-22T05:44:32.417Z,12.43
2022-10-22T05:47:00.277Z,12.42
2022-10-22T05:49:28.086Z,12.35
2022-10-22T05:51:56.076Z,12.33
2022-10-22T05:54:23.962Z,12.27
2022-10-22T05:56:53.289Z,12.26
2022-10-22T05:59:21.111Z,12.29
2022-10-22T06:01:50.066Z,12.32
2022-10-22T06:04:17.947Z,12.37
2022-10-22T06:06:48.465Z,12.34
2022-10-22T06:09:20.445Z,12.38
2022-10-22T06:11:49.551Z,12.49
2022-10-22T06:14:19.524Z,12.36
2022-10-22T06:16:47.392Z,12.48
2022-10-22T06:19:17.075Z,12.26
2022-10-22T06:21:45.578Z,12.19
2022-10-22T06:24:13.583Z,12.14
2022-10-22T06:26:41.977Z,12.36
2022-10-22T06:29:10.009Z,12.24
2022-10-22T06:31:39.122Z,12.13
2022-10-22T06:34:08.829Z,12.32
2022-10-22T06:36:37.455Z,12.56
2022-10-22T06:39:05.912Z,12.39
2022-10-22T06:41:33.839Z,12.49
2022-10-22T06:44:01.657Z,12.52
2022-10-22T06:46:29.999Z,12.49
2022-10-22T06:49:02.623Z,12.45
2022-10-22T06:51:31.050Z,12.47
2022-10-22T06:53:59.570Z,12.48
2022-10-22T06:56:29.315Z,12.56
2022-10-22T06:58:58.870Z,12.71
2022-10-22T07:01:28.376Z,12.76
2022-10-22T07:03:56.705Z,12.66
2022-10-22T07:06:28.209Z,12.68
2022-10-22T07:08:57.290Z,12.70
2022-10-22T07:11:27.502Z,12.74
2022-10-22T07:13:56.352Z,12.78
2022-10-22T07:16:28.165Z,12.78
2022-10-22T07:19:00.657Z,12.80
2022-10-22T07:21:30.965Z,12.78
2022-10-22T07:23:59.355Z,12.83
2022-10-22T07:26:30.694Z,12.87
2022-10-22T07:28:58.676Z,12.81
2022-10-22T07:31:26.728Z,12.83
2022-10-22T07:33:54.552Z,12.97
2022-10-22T07:36:22.424Z,12.94
2022-10-22T07:38:55.946Z,13.06
2022-10-22T07:41:24.603Z,13.09
2022-10-22T07:43:52.748Z,13.20
2022-10-22T07:46:21.243Z,13.28
2022-10-22T07:48:50.586Z,13.23
2022-10-22T07:51:18.812Z,13.32
2022-10-22T07:53:46.632Z,13.36
2022-10-22T07:56:15.726Z,13.58
2022-10-22T07:58:43.567Z,13.61
2022-10-22T08:01:11.451Z,13.60
2022-10-22T08:03:39.324Z,13.43
2022-10-22T08:06:07.889Z,13.46
2022-10-22T08:08:35.708Z,13.54
2022-10-22T08:11:03.750Z,13.62
2022-10-22T08:13:33.049Z,13.51
2022-10-22T08:16:01.554Z,13.56
2022-10-22T08:18:29.795Z,13.56
2022-10-22T08:20:57.685Z,13.66
2022-10-22T08:23:27.686Z,13.83
2022-10-22T08:25:57.011Z,13.84
2022-10-22T08:28:25.576Z,13.88
2022-10-22T08:30:54.791Z,13.82
2022-10-22T08:33:25.298Z,13.90
2022-10-22T08:35:53.826Z,13.86
2022-10-22T08:38:21.717Z,13.92
2022-10-22T08:40:52.555Z,13.87
2022-10-22T08:43:35.461Z,13.89
2022-10-22T08:46:18.259Z,13.97
2022-10-22T08:48:49.289Z,13.96
2022-10-22T08:51:20.099Z,13.96
2022-10-22T08:54:06.579Z,14.16
2022-10-22T08:56:37.292Z,14.16
2022-10-22T08:59:12.401Z,14.19
2022-10-22T09:01:47.792Z,14.13
2022-10-22T09:04:25.349Z,14.20
2022-10-22T09:06:54.770Z,14.18
2022-10-22T09:09:23.054Z,14.10
2022-10-22T09:11:52.347Z,14.33
2022-10-22T09:14:22.996Z,14.41
2022-10-22T09:17:10.601Z,14.32
2022-10-22T09:19:49.326Z,14.41
2022-10-22T09:22:29.167Z,14.76
2022-10-22T09:25:00.577Z,14.65
2022-10-22T09:27:30.314Z,14.59
2022-10-22T09:29:58.365Z,14.59
2022-10-22T09:32:27.616Z,14.85
2022-10-22T09:34:58.031Z,14.74
2022-10-22T09:37:29.791Z,14.83
2022-10-22T09:40:00.019Z,14.85
2022-10-22T09:42:27.839Z,14.84
2022-10-22T09:44:58.371Z,14.93
2022-10-22T09:48:00.541Z,15.12
2022-10-22T09:50:29.496Z,14.99
2022-10-22T09:53:07.329Z,15.24
2022-10-22T09:55:35.160Z,15.27
2022-10-22T09:58:03.012Z,15.35
2022-10-22T10:00:31.505Z,15.22
2022-10-22T10:03:01.267Z,15.21
2022-10-22T10:05:32.130Z,15.32
2022-10-22T10:08:01.781Z,15.33
2022-10-22T10:10:38.115Z,15.34
2022-10-22T10:13:23.169Z,15.46
2022-10-22T10:15:55.982Z,15.46
2022-10-22T10:18:35.139Z,15.33
2022-10-22T10:21:11.384Z,15.25
2022-10-22T10:23:51.402Z,15.56
2022-10-22T10:26:24.814Z,15.60
2022-10-22T10:29:06.325Z,15.45
2022-10-22T10:31:45.474Z,15.59
2022-10-22T10:34:27.478Z,15.38
2022-10-22T10:37:05.612Z,15.49
2022-10-22T10:39:57.056Z,15.62
2022-10-22T10:42:33.608Z,15.54
2022-10-22T10:45:13.020Z,15.51
2022-10-22T10:48:02.183Z,15.45
2022-10-22T10:50:40.241Z,15.52
2022-10-22T10:53:18.880Z,15.58
2022-10-22T10:55:58.570Z,15.83
2022-10-22T10:58:35.824Z,16.06
2022-10-22T11:01:13.787Z,15.99
2022-10-22T11:04:02.635Z,15.80
2022-10-22T11:06:35.145Z,16.48
2022-10-22T11:09:07.679Z,16.67
2022-10-22T11:11:39.701Z,16.94
2022-10-22T11:14:14.957Z,16.88
2022-10-22T11:16:47.436Z,16.92
2022-10-22T11:19:22.818Z,16.85
2022-10-22T11:22:07.127Z,16.69
2022-10-22T11:24:41.554Z,16.73
2022-10-22T11:27:17.846Z,17.00
2022-10-22T11:29:50.426Z,16.98
2022-10-22T11:32:23.643Z,17.08
2022-10-22T11:34:55.479Z,17.08
2022-10-22T11:37:27.420Z,16.89
2022-10-22T11:39:59.656Z,16.95
2022-10-22T11:42:34.618Z,17.32
2022-10-22T11:45:05.227Z,17.61
2022-10-22T11:47:35.636Z,17.55
2022-10-22T11:50:21.761Z,17.47
2022-10-22T11:52:56.461Z,17.61
2022-10-22T11:55:36.712Z,18.03
2022-10-22T11:58:33.653Z,18.21
2022-10-22T12:01:25.262Z,17.94
2022-10-22T12:04:14.813Z,18.58
2022-10-22T12:07:01.873Z,20.49
2022-10-22T12:09:32.727Z,21.73
2022-10-22T12:12:15.937Z,21.67
2022-10-22T12:14:59.357Z,23.61
2022-10-22T12:17:29.797Z,24.24
2022-10-22T12:20:05.801Z,23.38
2022-10-22T12:22:37.466Z,24.95
2022-10-22T12:25:17.072Z,25.71
2022-10-22T12:27:45.050Z,23.02
2022-10-22T12:30:21.848Z,21.45
2022-10-22T12:32:49.611Z,20.57
2022-10-22T12:35:23.761Z,23.00
2022-10-22T12:37:53.926Z,23.71
2022-10-22T12:40:23.561Z,23.97
2022-10-22T12:42:54.349Z,24.33
2022-10-22T12:45:23.621Z,24.11
2022-10-22T12:47:53.498Z,23.96
2022-10-22T12:50:27.653Z,22.93
2022-10-22T12:52:56.985Z,22.71
2022-10-22T12:55:26.731Z,22.27
2022-10-22T12:57:54.757Z,21.19
2022-10-22T13:00:25.639Z,21.01
2022-10-22T13:02:54.679Z,21.03
2022-10-22T13:05:27.192Z,20.24
2022-10-22T13:08:03.922Z,20.59
2022-10-22T13:10:34.592Z,20.66
2022-10-22T13:13:03.952Z,20.63
2022-10-22T13:15:37.389Z,20.44
2022-10-22T13:18:08.426Z,20.40
2022-10-22T13:20:38.461Z,20.35
2022-10-22T13:23:19.746Z,20.17
2022-10-22T13:26:02.320Z,20.05
2022-10-22T13:28:33.136Z,19.79
2022-10-22T13:31:02.504Z,19.62
2022-10-22T13:33:33.933Z,19.75
2022-10-22T13:36:01.871Z,19.63
2022-10-22T13:38:31.614Z,19.58
2022-10-22T13:40:59.995Z,19.52
2022-10-22T13:43:27.864Z,19.31
2022-10-22T13:45:58.957Z,19.52
2022-10-22T13:48:29.051Z,19.25
2022-10-22T13:50:56.973Z,19.43
2022-10-22T13:53:27.302Z,19.39
2022-10-22T13:55:57.110Z,19.43
2022-10-22T13:58:25.878Z,19.29
2022-10-22T14:00:56.963Z,19.28
2022-10-22T14:03:27.807Z,19.09
2022-10-22T14:05:55.687Z,19.17
2022-10-22T14:08:25.753Z,19.03
2022-10-22T14:10:54.013Z,19.13
2022-10-22T14:13:23.435Z,19.18
2022-10-22T14:15:53.169Z,19.13
2022-10-22T14:18:26.485Z,19.14
2022-10-22T14:20:55.926Z,19.19
2022-10-22T14:23:26.221Z,18.95
2022-10-22T14:25:54.364Z,19.02
2022-10-22T14:28:23.815Z,19.13
2022-10-22T14:30:52.402Z,19.17
2022-10-22T14:33:27.293Z,19.10
2022-10-22T14:36:00.082Z,19.02
2022-10-22T14:38:28.395Z,19.07
2022-10-22T14:40:56.271Z,18.95
2022-10-22T14:43:27.464Z,18.91
2022-10-22T14:45:56.262Z,18.97
2022-10-22T14:48:24.280Z,18.86
2022-10-22T14:50:52.238Z,18.86
2022-10-22T14:53:20.057Z,18.70
2022-10-22T14:55:49.176Z,18.83
2022-10-22T14:58:17.115Z,18.65
2022-10-22T15:00:46.313Z,18.69
2022-10-22T15:03:14.136Z,18.53
2022-10-22T15:05:44.330Z,18.53
2022-10-22T15:08:13.605Z,18.57
2022-10-22T15:10:41.906Z,18.63
2022-10-22T15:13:10.038Z,18.66
2022-10-22T15:15:39.843Z,18.54
2022-10-22T15:18:09.280Z,18.65
2022-10-22T15:20:37.118Z,18.57
2022-10-22T15:23:04.955Z,18.55
2022-10-22T15:25:33.019Z,18.53
2022-10-22T15:28:09.126Z,18.51
2022-10-22T15:30:37.792Z,18.40
2022-10-22T15:33:05.899Z,18.24
2022-10-22T15:35:35.232Z,18.35
2022-10-22T15:38:06.385Z,18.24
2022-10-22T15:40:34.290Z,18.10
2022-10-22T15:43:02.142Z,18.18
2022-10-22T15:45:30.138Z,18.08
2022-10-22T15:47:58.370Z,18.11
2022-10-22T15:50:26.135Z,18.12
2022-10-22T15:52:55.684Z,17.96
2022-10-22T15:55:23.534Z,17.91
2022-10-22T15:57:57.106Z,17.99
2022-10-22T16:00:27.135Z,17.83
2022-10-22T16:02:55.637Z,17.60
2022-10-22T16:05:23.499Z,17.46
2022-10-22T16:07:53.095Z,17.19
2022-10-22T16:10:22.801Z,17.00
2022-10-22T16:12:51.691Z,16.75
2022-10-22T16:15:19.756Z,16.58
2022-10-22T16:17:47.618Z,16.34
2022-10-22T16:20:15.486Z,16.04
2022-10-22T16:22:43.526Z,15.99
2022-10-22T16:25:11.455Z,15.77
2022-10-22T16:27:40.628Z,15.56
2022-10-22T16:30:09.135Z,15.46
2022-10-22T16:32:37.058Z,15.44
2022-10-22T16:35:05.304Z,15.53
2022-10-22T16:37:33.173Z,15.52
2022-10-22T16:40:04.428Z,15.43
2022-10-22T16:42:35.925Z,15.36
2022-10-22T16:45:05.758Z,15.25
2022-10-22T16:47:33.735Z,15.09
2022-10-22T16:50:01.604Z,15.08
2022-10-22T16:52:29.473Z,14.96
2022-10-22T16:54:58.091Z,14.74
2022-10-22T16:57:26.364Z,14.65
2022-10-22T16:59:54.347Z,14.90
2022-10-22T17:02:23.561Z,14.87
2022-10-22T17:04:51.398Z,14.94
2022-10-22T17:07:19.199Z,15.00
2022-10-22T17:09:47.029Z,14.97
2022-10-22T17:12:14.919Z,14.99
2022-10-22T17:14:42.737Z,14.99
2022-10-22T17:17:10.495Z,14.91
2022-10-22T17:19:39.746Z,15.02
2022-10-22T17:22:07.541Z,15.42
2022-10-22T17:24:35.563Z,15.59
2022-10-22T17:29:32.343Z,15.38
2022-10-22T17:32:01.387Z,15.45
2022-10-22T17:34:33.013Z,15.61
2022-10-22T17:37:02.231Z,15.20
2022-10-22T17:39:30.165Z,15.25
2022-10-22T17:41:58.151Z,15.17
2022-10-22T17:44:26.097Z,15.38
2022-10-22T17:46:53.967Z,15.36
2022-10-22T17:49:22.026Z,15.34
2022-10-22T17:51:49.946Z,15.38
2022-10-22T17:54:19.286Z,15.55
2022-10-22T17:56:47.115Z,15.63
2022-10-22T17:59:17.125Z,15.48
2022-10-22T18:01:47.696Z,15.60
2022-10-22T18:04:17.335Z,15.45
2022-10-22T18:06:46.679Z,15.41
2022-10-22T18:09:18.552Z,15.27
2022-10-22T18:11:49.737Z,15.34
2022-10-22T18:14:18.265Z,15.36
2022-10-22T18:16:46.830Z,15.54
2022-10-22T18:19:17.149Z,15.51
2022-10-22T18:21:45.090Z,15.34
2022-10-22T18:24:21.911Z,15.13
2022-10-22T18:26:51.074Z,15.41
2022-10-22T18:29:20.693Z,15.54
2022-10-22T18:31:49.333Z,15.67
2022-10-22T18:34:20.426Z,15.65
2022-10-22T18:36:51.176Z,15.78
2022-10-22T18:39:19.434Z,15.73
2022-10-22T18:41:47.421Z,15.65
2022-10-22T18:44:17.154Z,15.69
2022-10-22T18:46:45.358Z,15.68
2022-10-22T18:49:18.244Z,15.65
2022-10-22T18:51:48.613Z,15.76
2022-10-22T18:54:23.887Z,15.54
2022-10-22T18:56:53.081Z,15.40
2022-10-22T18:59:24.715Z,15.27
2022-10-22T19:01:53.804Z,15.21
2022-10-22T19:04:22.040Z,15.26
2022-10-22T19:06:50.055Z,15.20
2022-10-22T19:09:18.786Z,15.13
2022-10-22T19:11:46.972Z,15.08
2022-10-22T19:14:19.196Z,15.29
2022-10-22T19:16:48.903Z,15.06
2022-10-22T19:19:19.707Z,15.13
2022-10-22T19:21:47.653Z,15.31
2022-10-22T19:24:16.795Z,14.94
2022-10-22T19:26:45.517Z,14.71
2022-10-22T19:29:17.193Z,14.71
2022-10-22T19:31:45.952Z,14.56
2022-10-22T19:34:15.237Z,14.85
2022-10-22T19:36:43.158Z,14.91
2022-10-22T19:39:10.954Z,15.03
2022-10-22T19:41:38.806Z,14.85
2022-10-22T19:44:06.574Z,14.96
2022-10-22T19:46:34.638Z,15.07
2022-10-22T19:49:04.410Z,15.08
2022-10-22T19:51:34.580Z,15.02
2022-10-22T19:54:04.261Z,14.89
2022-10-22T19:56:33.527Z,14.76
2022-10-22T19:59:01.888Z,14.46
2022-10-22T20:01:31.793Z,14.79
2022-10-22T20:04:01.290Z,14.74
2022-10-22T20:06:29.199Z,14.75
2022-10-22T20:08:58.751Z,15.03
2022-10-22T20:11:28.933Z,14.77
2022-10-22T20:13:57.803Z,14.60
2022-10-22T20:16:28.425Z,14.86
2022-10-22T20:19:00.206Z,15.08
2022-10-22T20:21:28.752Z,14.85
2022-10-22T20:23:57.992Z,14.86
2022-10-22T20:26:28.061Z,14.70
2022-10-22T20:28:57.011Z,14.94
2022-10-22T20:31:27.807Z,14.93
2022-10-22T20:33:57.397Z,15.03
2022-10-22T20:36:26.577Z,14.93
2022-10-22T20:38:59.387Z,14.83
2022-10-22T20:41:28.906Z,14.74
2022-10-22T20:43:56.904Z,14.74
2022-10-22T20:46:27.182Z,14.72
2022-10-22T20:48:57.372Z,14.63
2022-10-22T20:51:25.216Z,14.78
2022-10-22T20:53:52.989Z,14.69
2022-10-22T20:56:21.219Z,14.67
2022-10-22T20:58:53.772Z,14.80
2022-10-22T21:01:24.010Z,14.95
2022-10-22T21:03:53.293Z,14.93
2022-10-22T21:06:23.355Z,14.91
2022-10-22T21:08:52.309Z,14.96
2022-10-22T21:11:21.180Z,14.98
2022-10-22T21:13:50.442Z,14.93
2022-10-22T21:16:20.008Z,14.94
2022-10-22T21:18:48.368Z,14.74
2022-10-22T21:21:17.060Z,14.73
2022-10-22T21:23:44.944Z,14.97
2022-10-22T21:26:12.956Z,14.90
2022-10-22T21:28:41.011Z,15.05
2022-10-22T21:31:15.256Z,15.10
2022-10-22T21:33:42.896Z,15.14
2022-10-22T21:36:10.846Z,15.04
2022-10-22T21:38:39.370Z,15.07
2022-10-22T21:41:08.240Z,15.07
2022-10-22T21:43:38.494Z,15.03
2022-10-22T21:46:08.530Z,15.22
2022-10-22T21:48:38.605Z,15.09
2022-10-22T21:51:08.099Z,15.23
2022-10-22T21:53:36.313Z,15.21
2022-10-22T21:56:04.884Z,15.26
2022-10-22T21:58:35.084Z,15.33
2022-10-22T22:01:03.323Z,15.37
2022-10-22T22:03:31.327Z,15.26
2022-10-22T22:06:01.907Z,15.18
2022-10-22T22:08:29.768Z,15.35
2022-10-22T22:11:03.006Z,15.29
2022-10-22T22:13:31.404Z,15.21
2022-10-22T22:16:03.163Z,15.27
2022-10-22T22:18:31.729Z,15.29
2022-10-22T22:21:03.975Z,15.30
2022-10-22T22:23:31.946Z,15.33
2022-10-22T22:26:00.322Z,15.26
2022-10-22T22:28:28.350Z,15.20
2022-10-22T22:30:56.254Z,15.11
2022-10-22T22:33:24.304Z,15.09
2022-10-22T22:35:52.529Z,15.10
2022-10-22T22:38:21.697Z,15.13
2022-10-22T22:40:49.526Z,15.03
2022-10-22T22:43:17.331Z,14.90
2022-10-22T22:45:45.154Z,14.88
2022-10-22T22:48:12.962Z,14.58
2022-10-22T22:50:40.929Z,14.61
2022-10-22T22:53:08.785Z,14.64
2022-10-22T22:55:37.891Z,14.80
2022-10-22T22:58:05.695Z,14.62
2022-10-22T23:00:33.561Z,14.52
2022-10-22T23:03:01.440Z,14.45
2022-10-22T23:05:29.264Z,14.36
2022-10-22T23:07:57.264Z,14.49
2022-10-22T23:10:25.102Z,14.30
2022-10-22T23:12:54.347Z,14.38
2022-10-22T23:15:22.115Z,14.15
2022-10-22T23:17:49.888Z,14.04
2022-10-22T23:20:17.932Z,14.01
2022-10-22T23:22:45.738Z,13.99
2022-10-22T23:25:13.628Z,14.02
2022-10-22T23:27:41.649Z,13.92
2022-10-22T23:30:12.875Z,14.06
2022-10-22T23:32:40.755Z,13.85
2022-10-22T23:35:10.312Z,13.70
2022-10-22T23:37:38.094Z,13.78
2022-10-22T23:40:07.228Z,13.96
2022-10-22T23:42:35.085Z,14.09
2022-10-22T23:45:02.965Z,14.11
2022-10-22T23:47:32.153Z,13.87
2022-10-22T23:50:00.033Z,13.93
2022-10-22T23:52:27.962Z,13.86
2022-10-22T23:54:55.771Z,13.78
2022-10-22T23:57:24.114Z,13.65
2022-10-22T23:59:51.922Z,13.65
